PWSweather.com
Personal Weather Stations
Station Observations
KPAGREEN17
Chestnut Hill Farm, Greensburg, PA 15601

Chestnut Hill FarmGreensburg, PA 15601

Lat: 40.32, Lon: -79.55

Elevation: 1148

Station Type: OR 968

Latest ConditionsUpdated 8:00:03 PM EDT Thursday, Jul 28, 2016
Currently Today's Max Today's Min Today's Average
Temperature 73.2°F22.9°C 80.6°F27.0°C 69.8°F21.0°C 74.0°F23.3°C
Dew Point 73.2°F22.9°C 78.5°F25.8°C 64.8°F18.2°C 73.1°F22.8°C
Winds Calm Calm 2.3 mph ENE3.7 kmh ENE - 0.1 mph 0.2 kmh
Wind Gusts -- 3.5 mph5.6 kmh - -
Humidity 100% 100% 81% 97%
Pressure 30.09 in1019.0 mb 30.15 in1021.0 mb 30.06 in1017.9 mb -
Precipitation - 0.24 in6.1 mm - -
Hour Temp Dew Point Humidity Winds Wind Gusts Pressure Precip Precip Rate Daily Precip Total
08:00 PM 73.2°F22.9°C 73.2°F22.9°C 100% Calm Calm -- 30.09 in1019.0 mb - 0.00 in0.0 mm 0.24 in6.1 mm
07:45 PM 73.6°F23.1°C 73.6°F23.1°C 100% Calm Calm -- 30.06 in1017.9 mb - 0.00 in0.0 mm 0.24 in6.1 mm
07:30 PM 73.6°F23.1°C 73.6°F23.1°C 100% Calm Calm -- 30.06 in1017.9 mb - 0.00 in0.0 mm 0.24 in6.1 mm
07:15 PM 73.8°F23.2°C 73.8°F23.2°C 100% Calm Calm -- 30.06 in1017.9 mb - 0.00 in0.0 mm 0.24 in6.1 mm
07:00 PM 73.6°F23.1°C 73.6°F23.1°C 100% Calm Calm -- 30.06 in1017.9 mb - 0.00 in0.0 mm 0.24 in6.1 mm
06:45 PM 73.6°F23.1°C 73.6°F23.1°C 100% Calm Calm -- 30.06 in1017.9 mb - 0.00 in0.0 mm 0.24 in6.1 mm
06:30 PM 73.4°F23.0°C 73.4°F23.0°C 100% Calm Calm -- 30.09 in1019.0 mb - 0.00 in0.0 mm 0.24 in6.1 mm
06:15 PM 73.4°F23.0°C 73.4°F23.0°C 100% Calm Calm -- 30.09 in1019.0 mb - 0.00 in0.0 mm 0.24 in6.1 mm
06:00 PM 73.6°F23.1°C 73.6°F23.1°C 100% Calm Calm -- 30.09 in1019.0 mb - 0.04 in1.0 mm 0.24 in6.1 mm
05:45 PM 74.3°F23.5°C 74.3°F23.5°C 100% Calm Calm -- 30.09 in1019.0 mb - 0.00 in0.0 mm 0.20 in5.1 mm
05:30 PM 74.3°F23.5°C 74.3°F23.5°C 100% 1.1 mph SW1.8 kmh SW 1.1 mph1.8 kmh 30.09 in1019.0 mb - 0.00 in0.0 mm 0.20 in5.1 mm
05:15 PM 74.5°F23.6°C 74.5°F23.6°C 100% Calm Calm -- 30.09 in1019.0 mb - 0.00 in0.0 mm 0.20 in5.1 mm
05:00 PM 74.8°F23.8°C 74.8°F23.8°C 100% Calm Calm -- 30.09 in1019.0 mb - 0.04 in1.0 mm 0.20 in5.1 mm
04:45 PM 74.7°F23.7°C 74.7°F23.7°C 100% Calm Calm -- 30.09 in1019.0 mb - 0.00 in0.0 mm 0.16 in4.1 mm
04:30 PM 74.7°F23.7°C 74.7°F23.7°C 100% Calm Calm -- 30.09 in1019.0 mb - 0.00 in0.0 mm 0.16 in4.1 mm
04:15 PM 75.2°F24.0°C 75.2°F24.0°C 100% 1.1 mph SW1.8 kmh SW 2.3 mph3.7 kmh 30.09 in1019.0 mb - 0.00 in0.0 mm 0.16 in4.1 mm
04:00 PM 76.3°F24.6°C 76.3°F24.6°C 100% Calm Calm 2.3 mph3.7 kmh 30.09 in1019.0 mb - 0.00 in0.0 mm 0.16 in4.1 mm
03:45 PM 76.3°F24.6°C 76.3°F24.6°C 100% Calm Calm -- 30.09 in1019.0 mb - 0.00 in0.0 mm 0.16 in4.1 mm
03:30 PM 76.5°F24.7°C 76.5°F24.7°C 100% Calm Calm 1.1 mph1.8 kmh 30.09 in1019.0 mb - 0.04 in1.0 mm 0.16 in4.1 mm
03:15 PM 76.6°F24.8°C 76.6°F24.8°C 100% Calm Calm -- 30.09 in1019.0 mb - 0.00 in0.0 mm 0.12 in3.0 mm
03:00 PM 76.6°F24.8°C 76.6°F24.8°C 100% Calm Calm 1.1 mph1.8 kmh 30.09 in1019.0 mb - 0.00 in0.0 mm 0.12 in3.0 mm
02:45 PM 76.6°F24.8°C 76.6°F24.8°C 100% Calm Calm -- 30.12 in1020.0 mb - 0.00 in0.0 mm 0.12 in3.0 mm
02:30 PM 76.8°F24.9°C 76.8°F24.9°C 100% Calm Calm -- 30.12 in1020.0 mb - 0.00 in0.0 mm 0.12 in3.0 mm
02:15 PM 76.8°F24.9°C 76.8°F24.9°C 100% Calm Calm -- 30.09 in1019.0 mb - 0.00 in0.0 mm 0.12 in3.0 mm
02:00 PM 76.6°F24.8°C 76.6°F24.8°C 100% Calm Calm -- 30.12 in1020.0 mb - 0.04 in1.0 mm 0.12 in3.0 mm
01:45 PM 76.3°F24.6°C 76.3°F24.6°C 100% Calm Calm -- 30.09 in1019.0 mb - 0.04 in1.0 mm 0.12 in3.0 mm
01:30 PM 76.5°F24.7°C 76.5°F24.7°C 100% Calm Calm -- 30.12 in1020.0 mb - 0.00 in0.0 mm 0.08 in2.0 mm
01:15 PM 76.4°F24.7°C 76.4°F24.7°C 100% Calm Calm -- 30.12 in1020.0 mb - 0.00 in0.0 mm 0.08 in2.0 mm
01:00 PM 76.2°F24.6°C 76.2°F24.6°C 100% 1.1 mph SW1.8 kmh SW 1.1 mph1.8 kmh 30.12 in1020.0 mb - 0.00 in0.0 mm 0.08 in2.0 mm
12:45 PM 76.3°F24.6°C 76.3°F24.6°C 100% Calm Calm 1.1 mph1.8 kmh 30.12 in1020.0 mb - 0.04 in1.0 mm 0.08 in2.0 mm
12:30 PM 76.3°F24.6°C 76.3°F24.6°C 100% Calm Calm 1.1 mph1.8 kmh 30.12 in1020.0 mb - 0.00 in0.0 mm 0.04 in1.0 mm
12:15 PM 76.8°F24.9°C 76.8°F24.9°C 100% Calm Calm 1.1 mph1.8 kmh 30.12 in1020.0 mb - 0.04 in1.0 mm 0.04 in1.0 mm
12:00 PM 77.4°F25.2°C 77.4°F25.2°C 100% Calm Calm 1.1 mph1.8 kmh 30.12 in1020.0 mb - 0.00 in0.0 mm 0.00 in0.0 mm
11:45 AM 77.7°F25.4°C 77.7°F25.4°C 100% Calm Calm -- 30.12 in1020.0 mb - 0.00 in0.0 mm 0.00 in0.0 mm
11:30 AM 78.5°F25.8°C 78.5°F25.8°C 100% Calm Calm 1.1 mph1.8 kmh 30.12 in1020.0 mb - 0.00 in0.0 mm 0.00 in0.0 mm
11:15 AM 79.2°F26.2°C 77.7°F25.4°C 95% Calm Calm -- 30.12 in1020.0 mb - 0.00 in0.0 mm 0.00 in0.0 mm
11:00 AM 80.1°F26.7°C 78.2°F25.7°C 94% Calm Calm 1.1 mph1.8 kmh 30.12 in1020.0 mb - 0.00 in0.0 mm 0.00 in0.0 mm
10:45 AM 80.4°F26.9°C 77.9°F25.5°C 92% Calm Calm 1.1 mph1.8 kmh 30.12 in1020.0 mb - 0.00 in0.0 mm 0.00 in0.0 mm
10:30 AM 80.6°F27.0°C 77.7°F25.4°C 91% 2.3 mph ENE3.7 kmh ENE 3.5 mph5.6 kmh 30.12 in1020.0 mb - 0.00 in0.0 mm 0.00 in0.0 mm
10:15 AM 80.6°F27.0°C 78.4°F25.8°C 93% Calm Calm 1.1 mph1.8 kmh 30.12 in1020.0 mb - 0.00 in0.0 mm 0.00 in0.0 mm
10:00 AM 79.9°F26.6°C 78.0°F25.6°C 94% 1.1 mph E1.8 kmh E 2.3 mph3.7 kmh 30.12 in1020.0 mb - 0.00 in0.0 mm 0.00 in0.0 mm
09:45 AM 78.8°F26.0°C 78.5°F25.8°C 99% Calm Calm 1.1 mph1.8 kmh 30.12 in1020.0 mb - 0.00 in0.0 mm 0.00 in0.0 mm
09:30 AM 77.0°F25.0°C 76.1°F24.5°C 97% Calm Calm -- 30.12 in1020.0 mb - 0.00 in0.0 mm 0.00 in0.0 mm
09:15 AM 76.6°F24.8°C 75.7°F24.3°C 97% Calm Calm -- 30.12 in1020.0 mb - 0.00 in0.0 mm 0.00 in0.0 mm
09:00 AM 76.1°F24.5°C 75.2°F24.0°C 97% Calm Calm -- 30.12 in1020.0 mb - 0.00 in0.0 mm 0.00 in0.0 mm
08:45 AM 75.1°F23.9°C 74.2°F23.4°C 97% Calm Calm -- 30.12 in1020.0 mb - 0.00 in0.0 mm 0.00 in0.0 mm
08:30 AM 74.3°F23.5°C 73.7°F23.2°C 98% Calm Calm -- 30.12 in1020.0 mb - 0.00 in0.0 mm 0.00 in0.0 mm
08:15 AM 73.9°F23.3°C 73.6°F23.1°C 99% Calm Calm -- 30.12 in1020.0 mb - 0.00 in0.0 mm 0.00 in0.0 mm
08:00 AM 73.3°F22.9°C 73.3°F22.9°C 100% Calm Calm -- 30.12 in1020.0 mb - 0.00 in0.0 mm 0.00 in0.0 mm
07:45 AM 72.6°F22.6°C 72.6°F22.6°C 100% Calm Calm -- 30.12 in1020.0 mb - 0.00 in0.0 mm 0.00 in0.0 mm
07:30 AM 72.0°F22.2°C 72.0°F22.2°C 100% Calm Calm -- 30.12 in1020.0 mb - 0.00 in0.0 mm 0.00 in0.0 mm
07:15 AM 71.6°F22.0°C 71.6°F22.0°C 100% Calm Calm -- 30.12 in1020.0 mb - 0.00 in0.0 mm 0.00 in0.0 mm
07:00 AM 71.4°F21.9°C 71.4°F21.9°C 100% Calm Calm -- 30.12 in1020.0 mb - 0.00 in0.0 mm 0.00 in0.0 mm
06:45 AM 71.2°F21.8°C 71.2°F21.8°C 100% Calm Calm -- 30.12 in1020.0 mb - 0.00 in0.0 mm 0.00 in0.0 mm
06:30 AM 71.1°F21.7°C 71.1°F21.7°C 100% Calm Calm -- 30.12 in1020.0 mb - 0.00 in0.0 mm 0.00 in0.0 mm
06:15 AM 70.7°F21.5°C 70.7°F21.5°C 100% Calm Calm -- 30.12 in1020.0 mb - 0.00 in0.0 mm 0.00 in0.0 mm
06:00 AM 70.9°F21.6°C 70.9°F21.6°C 100% Calm Calm -- 30.09 in1019.0 mb - 0.00 in0.0 mm 0.00 in0.0 mm
05:45 AM 70.5°F21.4°C 70.5°F21.4°C 100% Calm Calm -- 30.09 in1019.0 mb - 0.00 in0.0 mm 0.00 in0.0 mm
05:30 AM 70.5°F21.4°C 70.5°F21.4°C 100% Calm Calm -- 30.12 in1020.0 mb - 0.00 in0.0 mm 0.00 in0.0 mm
05:15 AM 70.9°F21.6°C 70.9°F21.6°C 100% Calm Calm -- 30.12 in1020.0 mb - 0.00 in0.0 mm 0.00 in0.0 mm
05:00 AM 70.7°F21.5°C 70.4°F21.3°C 99% Calm Calm -- 30.12 in1020.0 mb - 0.00 in0.0 mm 0.00 in0.0 mm
04:45 AM 70.7°F21.5°C 70.1°F21.2°C 98% Calm Calm -- 30.12 in1020.0 mb - 0.00 in0.0 mm 0.00 in0.0 mm
04:30 AM 70.9°F21.6°C 70.3°F21.3°C 98% Calm Calm -- 30.12 in1020.0 mb - 0.00 in0.0 mm 0.00 in0.0 mm
04:15 AM 70.9°F21.6°C 70.0°F21.1°C 97% Calm Calm -- 30.12 in1020.0 mb - 0.00 in0.0 mm 0.00 in0.0 mm
04:00 AM 70.9°F21.6°C 69.4°F20.8°C 95% Calm Calm -- 30.12 in1020.0 mb - 0.00 in0.0 mm 0.00 in0.0 mm
03:45 AM 71.1°F21.7°C 69.9°F21.1°C 96% Calm Calm -- 30.12 in1020.0 mb - 0.00 in0.0 mm 0.00 in0.0 mm
03:30 AM 71.2°F21.8°C 70.3°F21.3°C 97% Calm Calm -- 30.15 in1021.0 mb - 0.00 in0.0 mm 0.00 in0.0 mm
03:15 AM 71.1°F21.7°C 68.9°F20.5°C 93% Calm Calm -- 30.12 in1020.0 mb - 0.00 in0.0 mm 0.00 in0.0 mm
03:00 AM 71.4°F21.9°C 70.2°F21.2°C 96% Calm Calm -- 30.12 in1020.0 mb - 0.00 in0.0 mm 0.00 in0.0 mm
02:45 AM 71.3°F21.8°C 69.5°F20.8°C 94% Calm Calm -- 30.12 in1020.0 mb - 0.00 in0.0 mm 0.00 in0.0 mm
02:30 AM 71.2°F21.8°C 68.8°F20.4°C 92% Calm Calm -- 30.15 in1021.0 mb - 0.00 in0.0 mm 0.00 in0.0 mm
02:15 AM 71.4°F21.9°C 70.2°F21.2°C 96% Calm Calm -- 30.12 in1020.0 mb - 0.00 in0.0 mm 0.00 in0.0 mm
02:00 AM 70.7°F21.5°C 68.3°F20.2°C 92% Calm Calm -- 30.15 in1021.0 mb - 0.00 in0.0 mm 0.00 in0.0 mm
01:45 AM 70.3°F21.3°C 67.6°F19.8°C 91% Calm Calm -- 30.15 in1021.0 mb - 0.00 in0.0 mm 0.00 in0.0 mm
01:30 AM 69.8°F21.0°C 66.4°F19.1°C 89% Calm Calm -- 30.15 in1021.0 mb - 0.00 in0.0 mm 0.00 in0.0 mm
01:15 AM 69.8°F21.0°C 65.1°F18.4°C 85% Calm Calm -- 30.12 in1020.0 mb - 0.00 in0.0 mm 0.00 in0.0 mm
01:00 AM 70.2°F21.2°C 65.4°F18.6°C 85% Calm Calm -- 30.12 in1020.0 mb - 0.00 in0.0 mm 0.00 in0.0 mm
12:45 AM 70.4°F21.3°C 65.3°F18.5°C 84% Calm Calm -- 30.15 in1021.0 mb - 0.00 in0.0 mm 0.00 in0.0 mm
12:30 AM 70.5°F21.4°C 65.4°F18.6°C 84% Calm Calm -- 30.15 in1021.0 mb - 0.00 in0.0 mm 0.00 in0.0 mm
12:15 AM 70.5°F21.4°C 65.1°F18.4°C 83% Calm Calm -- 30.12 in1020.0 mb - 0.00 in0.0 mm 0.00 in0.0 mm
12:00 AM 70.9°F21.6°C 64.8°F18.2°C 81% Calm Calm -- 30.12 in1020.0 mb - 0.00 in0.0 mm 0.00 in0.0 mm